Time;durP1;ratioP1;P1;durP2;ratioP2;P2;SDS_P1;SDS_P2;PMS_P1;PMS_P2;Temp;Humidity;BMP_temperature;BMP_pressure;BME280_temperature;BME280_humidity;BME280_pressure;Samples;Min_cycle;Max_cycle;Signal;HPM_P1;HPM_P2
2024/03/18 00:00:19;;;;;;;11.73;7.30;;;11.00;99.90;;;;;;5014984;28;20519;-74
2024/03/18 00:02:47;;;;;;;12.68;7.10;;;11.00;99.90;;;;;;5012858;28;20034;-74
2024/03/18 00:05:17;;;;;;;10.90;7.68;;;11.00;99.90;;;;;;5017388;28;20061;-74
2024/03/18 00:07:44;;;;;;;11.27;7.72;;;11.10;99.90;;;;;;5020226;28;20108;-74
2024/03/18 00:10:11;;;;;;;13.45;7.72;;;11.00;99.90;;;;;;5012584;28;20546;-75
2024/03/18 00:12:40;;;;;;;13.40;7.90;;;11.10;99.90;;;;;;5013274;28;20026;-74
2024/03/18 00:15:08;;;;;;;12.10;7.78;;;11.00;99.90;;;;;;5019069;28;20064;-74
2024/03/18 00:17:36;;;;;;;13.65;8.90;;;11.10;99.90;;;;;;5017243;28;20053;-75
2024/03/18 00:20:12;;;;;;;13.50;8.60;;;11.10;99.90;;;;;;5011444;28;20025;-74
2024/03/18 00:22:42;;;;;;;13.10;6.97;;;11.10;99.90;;;;;;5025915;28;20033;-75
2024/03/18 00:25:11;;;;;;;14.00;8.38;;;11.10;99.90;;;;;;5011910;28;20409;-74
2024/03/18 00:27:37;;;;;;;14.35;8.88;;;11.10;99.90;;;;;;5026334;28;20028;-74
2024/03/18 00:30:06;;;;;;;15.00;8.65;;;11.10;99.90;;;;;;5021827;28;20085;-74
2024/03/18 00:32:33;;;;;;;13.93;8.18;;;11.10;99.90;;;;;;5034824;28;20037;-74
2024/03/18 00:34:59;;;;;;;14.48;8.68;;;11.10;99.90;;;;;;5004522;28;20544;-74
2024/03/18 00:37:25;;;;;;;11.80;8.05;;;11.10;99.90;;;;;;5009229;28;20101;-74
2024/03/18 00:39:51;;;;;;;14.07;8.77;;;11.10;99.90;;;;;;5025453;28;20017;-74
2024/03/18 00:42:17;;;;;;;14.52;8.50;;;11.20;99.90;;;;;;5012127;28;20060;-74
2024/03/18 00:44:43;;;;;;;14.75;8.60;;;11.20;99.90;;;;;;5018232;28;20029;-74
2024/03/18 00:47:09;;;;;;;13.85;8.73;;;11.20;99.90;;;;;;5018027;28;20574;-74
2024/03/18 00:49:35;;;;;;;11.52;8.32;;;11.20;99.90;;;;;;5025219;28;20105;-74
2024/03/18 00:52:00;;;;;;;14.25;8.68;;;11.20;99.90;;;;;;5014363;28;20065;-74
2024/03/18 00:54:26;;;;;;;14.15;9.20;;;11.20;99.90;;;;;;5034073;28;20036;-74
2024/03/18 00:56:52;;;;;;;12.90;7.57;;;11.20;99.90;;;;;;5015275;28;20026;-74
2024/03/18 00:59:18;;;;;;;12.52;8.25;;;11.20;99.90;;;;;;5025235;28;20048;-74
2024/03/18 01:01:44;;;;;;;13.00;8.88;;;11.20;99.90;;;;;;5018234;28;20762;-74
2024/03/18 01:04:10;;;;;;;14.27;9.15;;;11.20;99.90;;;;;;5018841;28;20123;-73
2024/03/18 01:06:36;;;;;;;11.13;8.27;;;11.20;99.90;;;;;;5011685;28;20477;-74
2024/03/18 01:09:04;;;;;;;12.98;8.95;;;11.20;99.90;;;;;;5025440;28;20169;-74
2024/03/18 01:11:29;;;;;;;11.60;8.60;;;11.20;99.90;;;;;;5020262;28;20041;-73
2024/03/18 01:13:55;;;;;;;16.85;9.48;;;11.20;99.90;;;;;;5020051;28;20080;-74
2024/03/18 01:16:24;;;;;;;16.85;10.15;;;11.20;99.90;;;;;;5023921;28;20045;-73
2024/03/18 01:18:51;;;;;;;14.13;9.80;;;11.20;99.90;;;;;;5016914;28;20038;-74
2024/03/18 01:21:18;;;;;;;12.48;8.73;;;11.20;99.90;;;;;;5017806;28;20044;-74
2024/03/18 01:23:46;;;;;;;13.32;8.50;;;11.20;99.90;;;;;;5011285;28;20038;-74
2024/03/18 01:26:13;;;;;;;14.05;9.00;;;11.20;99.90;;;;;;5015106;28;20494;-74
2024/03/18 01:28:39;;;;;;;13.10;9.63;;;11.20;99.90;;;;;;5027492;28;20032;-74
2024/03/18 01:31:05;;;;;;;15.43;8.82;;;11.20;99.90;;;;;;5029056;28;20482;-74
2024/03/18 01:33:31;;;;;;;14.52;9.05;;;11.20;99.90;;;;;;5015312;28;20586;-74
2024/03/18 01:35:57;;;;;;;14.77;10.00;;;11.20;99.90;;;;;;5027454;28;20041;-74
2024/03/18 01:38:23;;;;;;;12.85;9.23;;;11.20;99.90;;;;;;5017299;28;20029;-74
2024/03/18 01:40:49;;;;;;;13.30;8.88;;;11.20;99.90;;;;;;5022461;28;20022;-74
2024/03/18 01:43:14;;;;;;;16.10;10.45;;;11.20;99.90;;;;;;5017996;28;20108;-74
2024/03/18 01:45:40;;;;;;;17.25;9.65;;;11.20;99.90;;;;;;5028201;28;20492;-74
2024/03/18 01:48:07;;;;;;;15.50;10.60;;;11.30;99.90;;;;;;5027508;28;20021;-74
2024/03/18 01:50:33;;;;;;;13.48;8.90;;;11.30;99.90;;;;;;5028362;28;20021;-74
2024/03/18 01:52:59;;;;;;;13.68;9.30;;;11.30;99.90;;;;;;5014900;28;20398;-74
2024/03/18 01:55:25;;;;;;;14.43;9.95;;;11.30;99.90;;;;;;5027801;28;20056;-74
2024/03/18 01:57:52;;;;;;;14.98;9.82;;;11.30;99.90;;;;;;5023716;28;20014;-74
2024/03/18 02:00:51;;;;;;;15.90;11.13;;;11.30;99.90;;;;;;5016267;28;20030;-74
2024/03/18 02:03:09;;;;;;;25.60;11.95;;;11.30;99.90;;;;;;5026592;28;20026;-74
2024/03/18 02:05:36;;;;;;;17.85;11.70;;;11.30;99.90;;;;;;5016858;28;20021;-74
2024/03/18 02:08:03;;;;;;;18.17;11.10;;;11.30;99.90;;;;;;5024094;28;20009;-74
2024/03/18 02:10:29;;;;;;;18.75;12.35;;;11.30;99.90;;;;;;5018199;28;20026;-75
2024/03/18 02:13:02;;;;;;;18.45;12.02;;;11.30;99.90;;;;;;5023619;28;20017;-75
2024/03/18 02:15:31;;;;;;;17.58;12.80;;;11.30;99.90;;;;;;5027726;28;20033;-74
2024/03/18 02:17:58;;;;;;;19.85;12.95;;;11.30;99.90;;;;;;5013917;28;20045;-74
2024/03/18 02:20:24;;;;;;;22.75;14.30;;;11.30;99.90;;;;;;5027698;28;20495;-74
2024/03/18 02:22:51;;;;;;;23.08;13.25;;;11.30;99.90;;;;;;5027980;28;20044;-74
2024/03/18 02:25:17;;;;;;;20.17;13.18;;;11.30;99.90;;;;;;5013489;28;20026;-74
2024/03/18 02:27:44;;;;;;;24.75;14.95;;;11.30;99.90;;;;;;5034236;28;20100;-74
2024/03/18 02:30:10;;;;;;;16.83;11.23;;;11.40;99.90;;;;;;5013704;28;20439;-75
2024/03/18 02:32:37;;;;;;;21.02;13.57;;;11.40;99.90;;;;;;5021896;28;20026;-75
2024/03/18 02:35:05;;;;;;;22.38;13.65;;;11.40;99.90;;;;;;5019586;28;20033;-74
2024/03/18 02:37:32;;;;;;;22.77;14.52;;;11.40;99.90;;;;;;5012809;28;20853;-74
2024/03/18 02:40:07;;;;;;;20.88;13.35;;;11.40;99.90;;;;;;5027472;28;20498;-74
2024/03/18 02:42:33;;;;;;;30.05;15.43;;;11.40;99.90;;;;;;5024363;28;20072;-74
2024/03/18 02:44:58;;;;;;;25.08;14.65;;;11.40;99.90;;;;;;5016365;28;20425;-74
2024/03/18 02:47:24;;;;;;;26.52;15.10;;;11.40;99.90;;;;;;5013230;28;20026;-74
2024/03/18 02:49:49;;;;;;;22.40;13.98;;;11.50;99.90;;;;;;5020010;28;20022;-74
2024/03/18 02:52:15;;;;;;;24.30;14.50;;;11.50;99.90;;;;;;5021006;28;20044;-74
2024/03/18 02:54:41;;;;;;;20.48;13.02;;;11.50;99.90;;;;;;5021658;28;20160;-74
2024/03/18 02:57:06;;;;;;;22.30;13.75;;;11.50;99.90;;;;;;5018834;28;20111;-74
2024/03/18 02:59:32;;;;;;;26.08;13.27;;;11.50;99.90;;;;;;5012444;28;20420;-74
2024/03/18 03:01:58;;;;;;;28.80;15.40;;;11.50;99.90;;;;;;5018022;28;20033;-74
2024/03/18 03:04:23;;;;;;;24.50;13.38;;;11.50;99.90;;;;;;5020344;28;20556;-73
2024/03/18 03:06:49;;;;;;;23.02;15.20;;;11.50;99.90;;;;;;5017272;28;20021;-73
2024/03/18 03:09:15;;;;;;;22.65;13.75;;;11.50;99.90;;;;;;5026914;28;20386;-73
2024/03/18 03:11:42;;;;;;;19.45;12.85;;;11.50;99.90;;;;;;5025596;28;20566;-73
2024/03/18 03:14:08;;;;;;;21.77;12.82;;;11.50;99.90;;;;;;5026466;28;20474;-73
2024/03/18 03:16:34;;;;;;;23.27;13.95;;;11.50;99.90;;;;;;5025180;28;20033;-73
2024/03/18 03:19:00;;;;;;;25.85;15.85;;;11.50;99.90;;;;;;5026656;28;20028;-73
2024/03/18 03:21:26;;;;;;;23.60;14.20;;;11.50;99.90;;;;;;5019017;28;20422;-74
2024/03/18 03:23:51;;;;;;;27.90;16.58;;;11.50;99.90;;;;;;5026515;28;20029;-75
2024/03/18 03:26:17;;;;;;;22.00;13.88;;;11.60;99.90;;;;;;5026391;28;20546;-74
2024/03/18 03:28:44;;;;;;;25.75;14.75;;;11.60;99.90;;;;;;5022451;28;20022;-74
2024/03/18 03:31:09;;;;;;;24.02;14.70;;;11.60;99.90;;;;;;5026375;28;20013;-74
2024/03/18 03:33:37;;;;;;;27.50;16.67;;;11.60;99.90;;;;;;5013011;28;20048;-74
2024/03/18 03:36:03;;;;;;;24.63;15.82;;;11.60;99.90;;;;;;5012262;28;20512;-73
2024/03/18 03:38:29;;;;;;;23.20;14.30;;;11.70;99.90;;;;;;5026303;28;20029;-74
2024/03/18 03:40:55;;;;;;;28.58;15.48;;;11.60;99.90;;;;;;5025893;28;20032;-74
2024/03/18 03:43:21;;;;;;;26.73;15.70;;;11.70;99.90;;;;;;5014833;28;20022;-74
2024/03/18 03:45:59;;;;;;;26.67;16.55;;;11.70;99.90;;;;;;5020173;28;20017;-74
2024/03/18 03:48:26;;;;;;;26.38;14.90;;;11.60;99.90;;;;;;5015976;28;20486;-74
2024/03/18 03:50:53;;;;;;;29.38;15.40;;;11.60;99.90;;;;;;5025635;28;20041;-74
2024/03/18 03:53:20;;;;;;;20.33;15.63;;;11.70;99.90;;;;;;5018290;28;20032;-74
2024/03/18 03:55:46;;;;;;;28.85;15.38;;;11.60;99.90;;;;;;5020073;28;20026;-73
2024/03/18 03:58:14;;;;;;;23.02;15.35;;;11.70;99.90;;;;;;5026621;28;20061;-74
2024/03/18 04:00:43;;;;;;;22.02;15.23;;;11.70;99.90;;;;;;5013201;28;20030;-75
2024/03/18 04:03:09;;;;;;;26.60;16.17;;;11.70;99.90;;;;;;5025196;28;20390;-75
2024/03/18 04:05:36;;;;;;;26.38;16.58;;;11.70;99.90;;;;;;5025451;28;20025;-74
2024/03/18 04:08:02;;;;;;;25.85;15.63;;;11.70;99.90;;;;;;5023069;28;20024;-74
2024/03/18 04:10:28;;;;;;;21.45;14.73;;;11.80;99.90;;;;;;5019364;28;20025;-74
2024/03/18 04:12:54;;;;;;;30.02;16.55;;;11.70;99.90;;;;;;5012305;28;20028;-74
2024/03/18 04:15:20;;;;;;;24.98;16.10;;;11.70;99.90;;;;;;5025174;28;20468;-74
2024/03/18 04:17:48;;;;;;;28.70;15.90;;;11.70;99.90;;;;;;5012797;28;20502;-74
2024/03/18 04:20:19;;;;;;;23.27;15.77;;;11.70;99.90;;;;;;5019685;28;20362;-74
2024/03/18 04:22:48;;;;;;;26.73;16.70;;;11.70;99.90;;;;;;5024656;28;20067;-74
2024/03/18 04:25:14;;;;;;;27.17;15.70;;;11.70;99.90;;;;;;5020899;28;20033;-74
2024/03/18 04:27:43;;;;;;;29.80;17.45;;;11.70;99.90;;;;;;5017225;28;20029;-75
2024/03/18 04:30:17;;;;;;;27.30;15.23;;;11.70;99.90;;;;;;5020314;28;20043;-74
2024/03/18 04:32:43;;;;;;;30.52;16.30;;;11.70;99.90;;;;;;5012672;28;20025;-74
2024/03/18 04:35:10;;;;;;;21.90;14.80;;;11.70;99.90;;;;;;5025839;28;20052;-74
2024/03/18 04:37:42;;;;;;;25.25;15.40;;;11.70;99.90;;;;;;5025788;28;20025;-74
2024/03/18 04:40:11;;;;;;;29.05;16.08;;;11.60;99.90;;;;;;5025868;28;20025;-74
2024/03/18 04:42:40;;;;;;;23.67;15.75;;;11.70;99.90;;;;;;5025665;28;20030;-74
2024/03/18 04:45:07;;;;;;;23.88;14.90;;;11.60;99.90;;;;;;5015209;28;20029;-74
2024/03/18 04:47:43;;;;;;;30.75;17.90;;;11.60;99.90;;;;;;5019932;28;20167;-74
2024/03/18 04:50:11;;;;;;;24.58;16.38;;;11.60;99.90;;;;;;5015416;28;20013;-74
2024/03/18 04:52:38;;;;;;;28.83;16.20;;;11.60;99.90;;;;;;5011309;28;20036;-74
2024/03/18 04:55:05;;;;;;;31.88;15.88;;;11.60;99.90;;;;;;5015360;28;20113;-74
2024/03/18 04:57:31;;;;;;;29.90;16.83;;;11.60;99.90;;;;;;5018165;28;20030;-74
2024/03/18 04:59:57;;;;;;;27.55;15.05;;;11.60;99.90;;;;;;5012350;28;20022;-74
2024/03/18 05:02:23;;;;;;;24.73;15.02;;;11.50;99.90;;;;;;5016933;28;20022;-74
2024/03/18 05:04:49;;;;;;;29.17;15.77;;;11.50;99.90;;;;;;5022923;28;20021;-74
2024/03/18 05:07:15;;;;;;;28.02;16.70;;;11.60;99.90;;;;;;5020501;28;20037;-74
2024/03/18 05:09:44;;;;;;;30.95;15.68;;;11.50;99.90;;;;;;5014747;28;20017;-74
2024/03/18 05:12:10;;;;;;;26.40;15.18;;;11.50;99.90;;;;;;5029229;28;20466;-74
2024/03/18 05:14:35;;;;;;;24.15;14.55;;;11.50;99.90;;;;;;5028675;28;20026;-74
2024/03/18 05:17:01;;;;;;;30.77;17.00;;;11.50;99.90;;;;;;5022067;28;20057;-74
2024/03/18 05:19:27;;;;;;;30.85;17.58;;;11.50;99.90;;;;;;5022172;28;20035;-74
2024/03/18 05:21:52;;;;;;;23.13;14.98;;;11.50;99.90;;;;;;5021395;28;20410;-74
2024/03/18 05:24:18;;;;;;;27.70;15.73;;;11.50;99.90;;;;;;5024945;28;20042;-74
2024/03/18 05:26:44;;;;;;;26.88;15.80;;;11.50;99.90;;;;;;5027341;28;20021;-74
2024/03/18 05:29:10;;;;;;;27.65;16.40;;;11.50;99.90;;;;;;5022634;28;20068;-73
2024/03/18 05:31:35;;;;;;;25.50;14.90;;;11.50;99.90;;;;;;5019728;28;20435;-74
2024/03/18 05:34:04;;;;;;;27.90;16.77;;;11.50;99.90;;;;;;5025936;28;20022;-74
2024/03/18 05:36:30;;;;;;;25.30;14.68;;;11.50;99.90;;;;;;5018046;28;20544;-74
2024/03/18 05:38:55;;;;;;;24.17;14.70;;;11.50;99.90;;;;;;5027110;28;20283;-75
2024/03/18 05:41:21;;;;;;;27.38;15.88;;;11.50;99.90;;;;;;5019371;28;20029;-74
2024/03/18 05:43:47;;;;;;;24.33;14.40;;;11.40;99.90;;;;;;5028989;28;20025;-75
2024/03/18 05:46:14;;;;;;;26.23;13.98;;;11.50;99.90;;;;;;5014390;28;20979;-74
2024/03/18 05:48:40;;;;;;;28.65;16.40;;;11.50;99.90;;;;;;5028738;28;20021;-73
2024/03/18 05:51:06;;;;;;;25.48;15.07;;;11.50;99.90;;;;;;5028541;28;20022;-73
2024/03/18 05:53:32;;;;;;;26.58;15.85;;;11.50;99.90;;;;;;5028770;28;20427;-74
2024/03/18 05:55:57;;;;;;;26.63;15.98;;;11.60;99.90;;;;;;5028239;28;20110;-73
2024/03/18 05:58:23;;;;;;;28.02;16.08;;;11.60;99.90;;;;;;5028384;28;20083;-73
2024/03/18 06:00:48;;;;;;;28.58;15.93;;;11.60;99.90;;;;;;5028029;28;20029;-74
2024/03/18 06:03:14;;;;;;;28.70;17.27;;;11.60;99.90;;;;;;5014589;28;20032;-73
2024/03/18 06:05:41;;;;;;;30.60;16.58;;;11.60;99.90;;;;;;5016475;28;20026;-73
2024/03/18 06:08:06;;;;;;;27.23;15.38;;;11.60;99.90;;;;;;5022485;28;20073;-74
2024/03/18 06:10:32;;;;;;;33.50;17.08;;;11.60;99.90;;;;;;5017417;28;20105;-74
2024/03/18 06:12:58;;;;;;;28.48;16.00;;;11.70;99.90;;;;;;5025739;28;20436;-75
2024/03/18 06:15:23;;;;;;;29.58;15.93;;;11.70;99.90;;;;;;5027617;28;20614;-75
2024/03/18 06:17:49;;;;;;;29.42;15.93;;;11.70;99.90;;;;;;5014692;28;20056;-74
2024/03/18 06:20:16;;;;;;;28.08;15.38;;;11.70;99.90;;;;;;5021792;28;20033;-74
2024/03/18 06:22:42;;;;;;;27.67;16.25;;;11.70;99.90;;;;;;5026414;28;20021;-74
2024/03/18 06:27:53;;;;;;;26.42;15.82;;;11.70;99.90;;;;;;5028397;28;20044;-75
2024/03/18 06:30:19;;;;;;;32.03;18.63;;;11.70;99.90;;;;;;5020213;28;20125;-75
2024/03/18 06:32:45;;;;;;;28.85;16.90;;;11.70;99.90;;;;;;5028184;28;20157;-75
2024/03/18 06:35:11;;;;;;;23.13;14.07;;;11.70;99.90;;;;;;5014942;28;20399;-75
2024/03/18 06:37:38;;;;;;;26.95;16.67;;;11.80;99.90;;;;;;5022185;28;20057;-74
2024/03/18 06:40:07;;;;;;;29.55;15.82;;;11.80;99.90;;;;;;5018783;28;20052;-73
2024/03/18 06:42:33;;;;;;;30.00;16.08;;;11.80;99.90;;;;;;5013678;28;20030;-74
2024/03/18 06:44:59;;;;;;;31.92;16.83;;;11.80;99.90;;;;;;5017607;28;20505;-74
2024/03/18 06:47:25;;;;;;;28.67;16.40;;;11.80;99.90;;;;;;5022875;28;20018;-74
2024/03/18 06:49:52;;;;;;;28.92;16.83;;;11.80;99.90;;;;;;5027070;28;20037;-73
2024/03/18 06:52:18;;;;;;;26.35;17.02;;;11.80;99.90;;;;;;5026529;28;20029;-74
2024/03/18 06:54:43;;;;;;;28.30;15.82;;;11.80;99.90;;;;;;5012874;28;20188;-73
2024/03/18 06:57:10;;;;;;;28.67;16.02;;;11.80;99.90;;;;;;5024344;28;20093;-74
2024/03/18 06:59:36;;;;;;;31.05;18.52;;;11.90;99.90;;;;;;5026972;28;20104;-74
2024/03/18 07:02:01;;;;;;;27.60;15.43;;;11.90;99.90;;;;;;5026097;28;20025;-74
2024/03/18 07:04:27;;;;;;;26.55;16.25;;;11.90;99.90;;;;;;5027014;28;20026;-74
2024/03/18 07:06:53;;;;;;;25.10;14.82;;;11.90;99.90;;;;;;5025206;28;20237;-75
2024/03/18 07:09:19;;;;;;;27.70;15.80;;;11.90;99.90;;;;;;5027311;28;20022;-74
2024/03/18 07:11:45;;;;;;;27.38;14.70;;;11.90;99.90;;;;;;5026925;28;20104;-73
2024/03/18 07:14:13;;;;;;;26.95;15.95;;;11.90;99.90;;;;;;5025431;28;20457;-73
2024/03/18 07:16:39;;;;;;;27.63;16.15;;;11.90;99.90;;;;;;5015817;28;20703;-74
2024/03/18 07:19:04;;;;;;;30.17;16.77;;;11.90;99.90;;;;;;5023674;28;20478;-74
2024/03/18 07:21:30;;;;;;;23.42;13.23;;;11.90;99.90;;;;;;5024318;28;20089;-74
2024/03/18 07:23:59;;;;;;;29.48;17.02;;;12.00;99.90;;;;;;5026453;28;20034;-73
2024/03/18 07:26:25;;;;;;;28.60;16.13;;;11.90;99.90;;;;;;5022116;28;20443;-73
2024/03/18 07:28:51;;;;;;;28.08;17.00;;;12.00;99.90;;;;;;5023997;28;20115;-73
2024/03/18 07:31:16;;;;;;;27.00;15.60;;;12.00;99.90;;;;;;5024828;28;20029;-73
2024/03/18 07:33:45;;;;;;;29.42;17.27;;;12.00;99.90;;;;;;5026063;28;20483;-73
2024/03/18 07:36:11;;;;;;;27.77;16.02;;;12.00;99.90;;;;;;5025797;28;20033;-73
2024/03/18 07:38:39;;;;;;;26.60;16.83;;;12.00;99.90;;;;;;5011562;28;20022;-73
2024/03/18 07:41:04;;;;;;;28.30;16.63;;;12.00;99.90;;;;;;5020078;28;20017;-74
2024/03/18 07:43:30;;;;;;;30.98;17.33;;;12.00;99.90;;;;;;5025992;28;20091;-73
2024/03/18 07:45:55;;;;;;;29.58;16.10;;;12.00;99.90;;;;;;5025653;28;20392;-74
2024/03/18 07:48:21;;;;;;;27.70;16.55;;;12.00;99.90;;;;;;5025455;28;20026;-72
2024/03/18 07:50:54;;;;;;;32.30;18.75;;;12.00;99.90;;;;;;5024789;28;20656;-74
2024/03/18 07:53:20;;;;;;;31.50;17.25;;;12.00;99.90;;;;;;5018160;28;20034;-74
2024/03/18 07:55:46;;;;;;;28.50;18.52;;;12.00;99.90;;;;;;5020023;28;20086;-73
2024/03/18 07:58:11;;;;;;;28.88;17.02;;;12.10;99.90;;;;;;5025930;28;20156;-73
2024/03/18 08:00:38;;;;;;;27.02;15.95;;;12.10;99.90;;;;;;5024058;28;20504;-73
2024/03/18 08:03:04;;;;;;;27.55;17.23;;;12.10;99.90;;;;;;5025610;28;20025;-74
2024/03/18 08:05:30;;;;;;;27.60;16.90;;;12.10;99.90;;;;;;5037187;28;20111;-74
2024/03/18 08:07:56;;;;;;;28.83;17.13;;;12.10;99.90;;;;;;5006597;28;20021;-74
2024/03/18 08:10:22;;;;;;;26.90;17.23;;;12.10;99.90;;;;;;5023915;28;20028;-74
2024/03/18 08:12:47;;;;;;;28.10;16.95;;;12.20;99.90;;;;;;5025563;28;20029;-74
2024/03/18 08:15:15;;;;;;;29.00;17.20;;;12.20;99.90;;;;;;5016012;28;20489;-72
2024/03/18 08:17:42;;;;;;;29.30;17.92;;;12.20;99.90;;;;;;5022417;28;20060;-74
2024/03/18 08:20:09;;;;;;;29.67;16.02;;;12.30;99.90;;;;;;5016187;28;20069;-74
2024/03/18 08:22:35;;;;;;;30.70;19.00;;;12.30;99.90;;;;;;5010640;28;20022;-73
2024/03/18 08:25:00;;;;;;;31.15;17.92;;;12.30;99.90;;;;;;5023094;28;20042;-74
2024/03/18 08:27:29;;;;;;;28.38;18.90;;;12.40;99.90;;;;;;5023076;28;20082;-74
2024/03/18 08:29:55;;;;;;;28.80;18.30;;;12.40;99.90;;;;;;5021046;28;20028;-74
2024/03/18 08:32:20;;;;;;;29.17;18.35;;;12.40;99.90;;;;;;5025414;28;20021;-74
2024/03/18 08:34:46;;;;;;;30.15;18.33;;;12.40;99.90;;;;;;5026032;28;20025;-74
2024/03/18 08:37:12;;;;;;;28.30;17.00;;;12.40;99.90;;;;;;5029397;28;20029;-74
2024/03/18 08:39:38;;;;;;;28.52;18.95;;;12.40;99.90;;;;;;5022676;28;20377;-74
2024/03/18 08:42:04;;;;;;;26.52;17.02;;;12.40;99.90;;;;;;5022669;28;20179;-74
2024/03/18 08:44:29;;;;;;;30.52;17.08;;;12.40;99.90;;;;;;5029836;28;20084;-72
2024/03/18 08:46:55;;;;;;;26.40;15.95;;;12.50;99.90;;;;;;5029169;28;20763;-73
2024/03/18 08:49:23;;;;;;;26.00;16.23;;;12.50;99.90;;;;;;5027160;28;20021;-74
2024/03/18 08:51:49;;;;;;;25.80;16.27;;;12.60;99.90;;;;;;5025088;28;20029;-73
2024/03/18 08:54:16;;;;;;;23.15;14.32;;;12.60;99.90;;;;;;5025313;28;20036;-74
2024/03/18 08:56:42;;;;;;;27.20;14.68;;;12.60;99.90;;;;;;5027384;28;20059;-74
2024/03/18 08:59:10;;;;;;;25.08;16.08;;;12.60;99.90;;;;;;5029405;28;20033;-74
2024/03/18 09:01:35;;;;;;;23.67;15.77;;;12.50;99.90;;;;;;5010200;28;20646;-74
2024/03/18 09:04:01;;;;;;;25.13;15.98;;;12.50;99.90;;;;;;5017025;28;20030;-74
2024/03/18 09:06:27;;;;;;;24.02;16.02;;;12.50;99.90;;;;;;5024848;28;20018;-74
2024/03/18 09:08:52;;;;;;;26.48;16.70;;;12.50;99.90;;;;;;5029018;28;20044;-73
2024/03/18 09:11:18;;;;;;;25.38;17.33;;;12.50;99.90;;;;;;5037907;28;20100;-74
2024/03/18 09:13:44;;;;;;;25.33;17.17;;;12.40;99.90;;;;;;5032352;28;20367;-73
2024/03/18 09:16:09;;;;;;;24.42;16.20;;;12.40;99.90;;;;;;5043519;28;20032;-74
2024/03/18 09:18:35;;;;;;;26.77;17.38;;;12.40;99.90;;;;;;5029425;28;20033;-74
2024/03/18 09:21:01;;;;;;;28.23;15.90;;;12.40;99.90;;;;;;5028958;28;20025;-74
2024/03/18 09:23:27;;;;;;;31.20;17.00;;;12.40;99.90;;;;;;5028749;28;20029;-74
2024/03/18 09:25:52;;;;;;;30.60;18.05;;;12.40;99.90;;;;;;5028554;28;20025;-73
2024/03/18 09:28:19;;;;;;;30.65;18.08;;;12.40;99.90;;;;;;5028736;28;20021;-74
2024/03/18 09:30:44;;;;;;;26.13;17.38;;;12.40;99.90;;;;;;5028803;28;20055;-74
2024/03/18 09:33:11;;;;;;;32.30;18.45;;;12.40;99.90;;;;;;5029091;28;20426;-74
2024/03/18 09:35:37;;;;;;;32.95;17.23;;;12.50;99.90;;;;;;5026244;28;20494;-74
2024/03/18 09:38:04;;;;;;;27.33;15.25;;;12.50;99.90;;;;;;5024219;28;20174;-74
2024/03/18 09:40:30;;;;;;;19.50;12.23;;;12.50;99.90;;;;;;5011645;28;20033;-73
2024/03/18 09:42:56;;;;;;;26.90;17.30;;;12.50;99.90;;;;;;5017647;28;20018;-73
2024/03/18 09:45:23;;;;;;;28.25;15.82;;;12.50;99.90;;;;;;5027721;28;20095;-73
2024/03/18 09:47:49;;;;;;;26.73;15.10;;;12.50;99.90;;;;;;5025961;28;20501;-73
2024/03/18 09:50:16;;;;;;;23.80;14.45;;;12.50;99.90;;;;;;5028152;28;20067;-73
2024/03/18 09:52:44;;;;;;;24.23;13.50;;;12.50;99.90;;;;;;5027941;28;20056;-72
2024/03/18 09:55:24;;;;;;;23.90;14.20;;;12.60;99.90;;;;;;5027101;28;20057;-74
2024/03/18 09:57:51;;;;;;;21.80;13.77;;;12.60;99.90;;;;;;5025925;28;20033;-74
2024/03/18 10:00:20;;;;;;;23.70;15.38;;;12.60;99.90;;;;;;5020641;28;20037;-73
2024/03/18 10:02:46;;;;;;;22.85;13.93;;;12.60;99.90;;;;;;5025429;28;20398;-74
2024/03/18 10:05:13;;;;;;;23.83;15.45;;;12.70;99.90;;;;;;5024765;28;20032;-72
2024/03/18 10:07:40;;;;;;;23.85;14.82;;;12.80;99.90;;;;;;5019533;28;20061;-73
2024/03/18 10:10:20;;;;;;;27.30;15.25;;;12.80;99.90;;;;;;5023227;28;20396;-74
2024/03/18 10:12:49;;;;;;;20.50;14.10;;;12.80;99.90;;;;;;5020834;28;20590;-73
2024/03/18 10:15:14;;;;;;;22.63;14.88;;;12.90;99.90;;;;;;5026392;28;20029;-72
2024/03/18 10:17:41;;;;;;;27.42;14.48;;;12.90;99.90;;;;;;5024928;28;20065;-72
2024/03/18 10:20:21;;;;;;;20.83;14.38;;;12.90;99.90;;;;;;5026899;28;20030;-73
2024/03/18 10:22:48;;;;;;;19.48;13.18;;;12.90;99.90;;;;;;5026399;28;20029;-73
2024/03/18 10:25:21;;;;;;;21.35;13.52;;;12.90;99.90;;;;;;5027741;28;20059;-72
2024/03/18 10:27:48;;;;;;;21.92;13.15;;;12.90;99.90;;;;;;5027618;28;20025;-73
2024/03/18 10:30:14;;;;;;;23.52;12.82;;;13.00;99.90;;;;;;5027603;28;20447;-73
2024/03/18 10:32:44;;;;;;;19.90;12.15;;;13.00;99.90;;;;;;5019779;28;20524;-73
2024/03/18 10:35:21;;;;;;;17.02;10.60;;;13.20;99.90;;;;;;5023948;28;20116;-74
2024/03/18 10:37:57;;;;;;;18.70;11.05;;;13.30;99.90;;;;;;5022665;28;20356;-73
2024/03/18 10:40:34;;;;;;;19.00;10.45;;;13.40;99.90;;;;;;5026929;28;20029;-73
2024/03/18 10:43:02;;;;;;;16.85;9.93;;;13.40;99.90;;;;;;5013091;28;20497;-73
2024/03/18 10:45:31;;;;;;;13.38;8.68;;;13.40;99.90;;;;;;5031880;28;20029;-73
2024/03/18 10:47:58;;;;;;;15.15;9.10;;;13.50;99.90;;;;;;5026125;28;20100;-73
2024/03/18 10:50:23;;;;;;;16.27;9.45;;;13.40;99.90;;;;;;5025857;28;20494;-74
2024/03/18 10:52:50;;;;;;;13.95;8.77;;;13.40;99.90;;;;;;5026226;28;20022;-75
2024/03/18 10:55:20;;;;;;;14.32;7.97;;;13.40;99.90;;;;;;5024507;28;20065;-74
2024/03/18 10:57:58;;;;;;;15.98;8.50;;;13.40;99.90;;;;;;5024891;28;20086;-74
2024/03/18 11:00:24;;;;;;;13.77;9.00;;;13.30;99.90;;;;;;5026910;28;20103;-74
2024/03/18 11:02:54;;;;;;;13.70;9.60;;;13.30;99.90;;;;;;5025238;28;20041;-75
2024/03/18 11:05:26;;;;;;;16.20;9.57;;;13.20;99.90;;;;;;5024790;28;20033;-74
2024/03/18 11:07:53;;;;;;;17.60;10.43;;;13.20;99.90;;;;;;5026797;28;20025;-74
2024/03/18 11:10:20;;;;;;;17.75;10.55;;;13.20;99.90;;;;;;5026480;28;20018;-74
2024/03/18 11:12:46;;;;;;;18.40;11.60;;;13.20;99.90;;;;;;5026150;28;20030;-74
2024/03/18 11:15:14;;;;;;;19.73;11.93;;;13.20;99.90;;;;;;5026670;28;20028;-74
2024/03/18 11:17:49;;;;;;;18.55;11.85;;;13.10;99.90;;;;;;5025757;28;20686;-74
2024/03/18 11:20:20;;;;;;;22.60;11.70;;;13.10;99.90;;;;;;5026245;28;20180;-74
2024/03/18 11:22:56;;;;;;;19.83;11.50;;;13.00;99.90;;;;;;5016095;28;20033;-74
2024/03/18 11:25:25;;;;;;;19.80;10.70;;;13.00;99.90;;;;;;5019632;28;20061;-74
2024/03/18 11:27:52;;;;;;;17.95;11.10;;;12.90;99.90;;;;;;5024448;28;20064;-74
2024/03/18 11:30:30;;;;;;;23.92;12.20;;;12.90;99.90;;;;;;5026730;28;20026;-74
2024/03/18 11:33:11;;;;;;;22.45;12.40;;;12.90;99.90;;;;;;5025995;28;20023;-74
2024/03/18 11:35:38;;;;;;;;;;;13.00;99.90;;;;;;5019442;28;20050;-73
2024/03/18 11:38:04;;;;;;;22.75;11.85;;;13.10;99.90;;;;;;5024809;28;20134;-74
2024/03/18 11:40:36;;;;;;;24.38;13.48;;;13.20;99.90;;;;;;5025026;28;20039;-74
2024/03/18 11:43:02;;;;;;;22.30;12.45;;;13.30;99.90;;;;;;5023440;28;20021;-74
2024/03/18 11:45:28;;;;;;;23.02;12.82;;;13.60;99.90;;;;;;5023617;28;20033;-74
2024/03/18 11:48:01;;;;;;;24.52;12.60;;;13.80;99.90;;;;;;5024412;28;20021;-73
2024/03/18 11:50:34;;;;;;;23.13;12.25;;;14.00;99.90;;;;;;5019991;28;20042;-74
2024/03/18 11:53:03;;;;;;;21.85;12.50;;;14.10;99.90;;;;;;5025713;28;20021;-73
2024/03/18 11:55:33;;;;;;;21.45;12.60;;;14.20;99.90;;;;;;5025366;28;20502;-74
2024/03/18 11:57:59;;;;;;;19.17;11.52;;;14.30;99.90;;;;;;5025567;28;20021;-74
2024/03/18 12:00:25;;;;;;;20.40;10.68;;;14.50;99.90;;;;;;5025793;28;20456;-74
2024/03/18 12:02:51;;;;;;;13.95;8.45;;;14.60;99.90;;;;;;5020247;28;20039;-73
2024/03/18 12:05:16;;;;;;;17.63;10.00;;;14.70;99.90;;;;;;5017180;28;20470;-73
2024/03/18 12:07:43;;;;;;;17.90;9.52;;;14.80;99.90;;;;;;5020202;28;20018;-74
2024/03/18 12:10:10;;;;;;;18.92;9.73;;;14.90;99.90;;;;;;5024420;28;20025;-74
2024/03/18 12:12:37;;;;;;;20.73;9.77;;;15.00;99.90;;;;;;5024828;28;20100;-74
2024/03/18 12:15:04;;;;;;;21.20;9.73;;;15.00;99.90;;;;;;5024769;28;20025;-74
2024/03/18 12:17:31;;;;;;;16.85;9.20;;;15.10;99.90;;;;;;5022338;28;20513;-74
2024/03/18 12:20:00;;;;;;;16.30;8.38;;;15.20;99.90;;;;;;5022107;28;20029;-74
2024/03/18 12:22:30;;;;;;;16.90;8.57;;;15.30;99.90;;;;;;5019553;28;20075;-75
2024/03/18 12:30:32;;;;;;;17.08;8.30;;;15.60;99.90;;;;;;5023878;28;20048;-74
2024/03/18 12:33:11;;;;;;;18.15;7.78;;;15.70;99.90;;;;;;5018700;28;20100;-74
2024/03/18 12:35:38;;;;;;;17.95;7.47;;;15.70;99.90;;;;;;5025155;28;20030;-74